CST,Max TemperatureF,Mean TemperatureF,Min TemperatureF,Max Dew PointF,MeanDew PointF,Min DewpointF,Max Humidity, Mean Humidity, Min Humidity, Max Sea Level PressureIn, Mean Sea Level PressureIn, Min Sea Level PressureIn, Max VisibilityMiles, Mean VisibilityMiles, Min VisibilityMiles, Max Wind SpeedMPH, Mean Wind SpeedMPH, Max Gust SpeedMPH,PrecipitationIn, CloudCover, Events, WindDirDegrees
2013-11-1,44,42,41,39,37,36,87,82,76,29.71,29.51,29.26,10,9,2,22,14,31,0.00,8,Rain,274
2013-11-2,44,40,37,37,35,32,93,81,61,30.14,29.93,29.71,10,9,5,10,6,,0.00,8,Rain,328
2013-11-3,50,39,28,37,33,28,100,80,47,30.28,30.23,30.14,10,7,0,10,3,,0.00,3,Fog,130
2013-11-4,51,46,42,41,37,34,76,69,50,30.25,30.15,30.05,10,10,10,17,9,24,0.00,3,,162
2013-11-5,51,48,46,46,43,41,93,81,71,30.25,30.13,29.89,10,8,2,15,4,23,0.06,8,Rain,148
2013-11-6,53,42,32,52,37,23,94,82,65,30.12,29.89,29.70,10,9,4,17,12,29,0.16,6,Rain,265
2013-11-7,39,34,28,30,26,23,87,76,61,30.20,30.16,30.12,10,10,7,13,8,18,0.00,3,Snow,272
2013-11-8,42,34,26,32,27,23,93,73,53,30.27,30.14,29.84,10,8,1,14,5,23,0.00,2,Rain,195
2013-11-9,51,44,37,36,32,23,71,60,49,30.02,29.82,29.73,10,10,10,31,14,41,0.00,6,Rain,252
2013-11-10,44,40,35,30,27,23,70,59,46,30.28,30.18,30.03,10,10,10,18,12,30,0.00,5,,267
2013-11-11,41,32,24,32,23,12,93,68,51,30.50,30.23,30.03,10,9,1,17,8,24,0.02,6,Rain-Snow,315
2013-11-12,30,24,19,14,13,9,80,62,40,30.66,30.58,30.51,10,10,10,16,6,23,0.00,0,,279
2013-11-13,41,30,19,18,12,9,74,50,28,30.50,30.25,30.01,10,10,10,23,11,34,0.00,0,,230
2013-11-14,44,38,32,28,22,14,61,52,41,30.01,29.92,29.86,10,10,10,18,13,30,0.00,1,,227
2013-11-15,53,44,35,34,30,27,81,60,44,29.91,29.89,29.86,10,10,10,10,5,,0.00,2,,216
2013-11-16,59,47,35,52,43,32,94,87,77,29.89,29.69,29.50,10,7,1,21,8,33,0.01,6,Rain,171
2013-11-17,62,52,41,57,46,32,94,84,66,29.60,29.36,29.13,10,9,2,31,11,41,0.70,7,Rain,239
2013-11-18,39,34,28,30,23,18,75,67,60,30.22,29.94,29.60,10,10,10,30,19,40,0.00,7,,285
2013-11-19,37,29,21,30,23,18,93,79,52,30.35,30.29,30.23,10,10,10,8,2,,0.00,0,,130
2013-11-20,42,37,32,32,29,25,93,79,53,30.25,30.18,30.10,10,10,3,13,7,20,0.00,3,Rain,155
2013-11-21,42,38,33,36,34,32,93,86,76,30.22,30.15,30.10,10,5,2,7,2,,0.00,8,,331
2013-11-22,37,32,26,34,23,10,93,73,51,30.43,30.37,30.21,10,9,2,16,9,23,0.00,4,Snow,306
2013-11-23,26,19,12,14,4,-2,68,55,36,30.66,30.54,30.35,10,10,10,22,13,29,0.00,4,Snow,305
2013-11-24,26,17,8,5,2,-2,79,53,31,30.64,30.49,30.22,10,10,10,18,7,28,0.00,1,,239
2013-11-25,30,26,21,23,17,3,86,70,40,30.21,30.04,29.98,10,9,0,20,14,32,0.00,7,Snow,229
2013-11-26,32,23,12,25,15,3,80,65,40,30.16,30.04,29.97,10,10,10,17,8,23,0.00,6,Snow,297
2013-11-27,26,18,10,18,9,3,86,69,50,30.21,30.17,30.14,10,9,2,15,8,21,0.00,2,Snow,301
2013-11-28,26,19,12,18,14,9,93,75,59,30.47,30.25,30.15,10,10,7,10,2,,0.00,6,Snow,281
2013-11-29,30,19,8,23,14,3,93,73,47,30.60,30.50,30.34,10,10,10,9,3,,0.00,0,,180
2013-11-30,42,34,26,30,25,19,81,70,57,30.33,30.12,30.00,10,10,10,12,6,16,0.00,2,,214